Latest Weather Observations for Wudinna Airport

IDS60801

Issued at 7:01 pm CST Friday 22 September 2017 (issued every 30 minutes, with the page automatically refreshed every 10 minutes)

About weather observations | Map of weather stations | Latest weather observations for SA | Other Formats
Station Details ID: 018083 Name: WUDINNA AERO Lat: -33.04 Lon: 135.45 Height: 86.4 m
Data from the previous 72 hours. | See also: Recent months at Wudinna Airport
Date/Time
CST
Temp
°C
App
Temp
°C
Dew
Point
°C
Rel
Hum
%
Delta-T
°C
Wind Press
QNH
hPa
Press
MSL
hPa
Rain since
9am
mm
Dir  Spd
km/h
Gust
km/h
Spd
kts
Gust
kts
22/07:00pm 19.6 17.3 5.6 40 7.0 NNE 7 9 4 5 1002.3 1002.2 0.0
22/06:30pm 23.5 20.5 5.9 32 9.0 WSW 11 13 6 7 1002.1 1002.0 0.0
22/06:00pm 26.5 23.2 6.5 28 10.5 WSW 13 15 7 8 1001.9 1001.8 0.0
22/05:30pm 28.9 24.8 6.3 24 12.0 WSW 17 20 9 11 1001.8 1001.7 0.0
22/05:00pm 30.2 25.1 6.1 22 12.8 WSW 22 28 12 15 1001.7 1001.6 0.0
22/04:30pm 31.5 25.1 5.1 19 14.0 WSW 28 35 15 19 1001.5 1001.4 0.0
22/04:00pm 32.7 24.2 0.7 13 15.8 WNW 35 50 19 27 1001.4 1001.3 0.0
22/03:30pm 33.7 26.2 1.5 13 16.3 NW 30 43 16 23 1001.6 1001.5 0.0
22/03:00pm 34.1 24.8 0.7 12 16.7 WNW 39 54 21 29 1001.7 1001.6 0.0
22/02:30pm 33.9 25.2 -0.7 11 16.9 NW 35 54 19 29 1001.9 1001.8 0.0
22/02:00pm 34.3 26.2 -0.4 11 17.0 NW 32 52 17 28 1002.4 1002.3 0.0
22/01:55pm 34.5 26.8 -0.2 11 17.1 WNW 30 52 16 28 1002.4 1002.3 0.0
22/01:30pm 34.3 26.0 -0.4 11 17.1 NW 33 48 18 26 1002.7 1002.6 0.0
22/01:16pm 33.7 26.5 0.4 12 16.5 NW 28 46 15 25 1003.0 1002.9 0.0
22/01:00pm 33.7 25.9 1.5 13 16.2 WNW 32 46 17 25 1003.2 1003.1 0.0
22/12:30pm 32.9 24.4 0.9 13 15.9 WNW 35 56 19 30 1003.5 1003.4 0.0
22/12:27pm 33.4 25.0 1.3 13 16.1 WNW 35 56 19 30 1003.5 1003.4 0.0
22/12:26pm 33.5 25.1 1.3 13 16.1 WNW 35 48 19 26 1003.6 1003.5 0.0
22/12:00pm 32.4 23.5 0.5 13 15.7 NW 37 52 20 28 1003.5 1003.4 0.0
22/11:30am 32.4 24.0 1.5 14 15.5 NNW 35 48 19 26 1003.7 1003.6 0.0
22/11:00am 31.0 22.7 2.3 16 14.4 N 35 46 19 25 1004.1 1004.0 0.0
22/10:30am 30.4 22.9 3.4 18 13.8 NNW 32 48 17 26 1004.6 1004.6 0.0
22/10:00am 28.7 21.2 4.2 21 12.5 N 33 46 18 25 1005.0 1005.0 0.0
22/09:30am 27.1 20.9 6.0 26 11.1 N 28 39 15 21 1005.2 1005.2 0.0
22/09:00am 24.2 17.2 6.0 31 9.4 N 32 43 17 23 1005.3 1005.3 0.0
22/08:30am 22.7 16.5 6.0 34 8.5 N 28 37 15 20 1005.5 1005.5 0.0
22/08:00am 20.7 15.0 6.6 40 7.2 NNE 26 35 14 19 1005.4 1005.4 0.0
22/07:30am 19.6 13.9 6.7 43 6.5 NNE 26 37 14 20 1005.6 1005.6 0.0
22/07:00am 18.2 13.2 8.2 52 5.1 NNE 24 35 13 19 1005.7 1005.7 0.0
22/06:30am 17.2 12.7 8.4 56 4.5 NNE 22 30 12 16 1005.9 1005.9 0.0
22/06:00am 16.8 11.9 8.5 58 4.3 NNE 24 33 13 18 1005.9 1005.9 0.0
22/05:30am 16.6 11.7 8.6 59 4.1 NNE 24 32 13 17 1005.9 1005.9 0.0
22/05:00am 16.6 12.2 8.8 60 4.0 NNE 22 30 12 16 1005.8 1005.8 0.0
22/04:30am 16.1 12.2 8.8 62 3.8 NNE 19 28 10 15 1005.9 1005.9 0.0
22/04:00am 15.2 12.5 8.9 66 3.2 NNE 13 17 7 9 1006.2 1006.2 0.0
22/03:30am 12.5 10.8 8.2 75 2.1 ENE 7 9 4 5 1006.2 1006.2 0.0
22/03:00am 13.2 10.8 8.5 73 2.4 ENE 11 15 6 8 1006.4 1006.4 0.0
22/02:30am 13.7 11.4 9.0 73 2.4 NE 11 15 6 8 1006.8 1006.8 0.0
22/02:00am 14.5 11.5 9.3 71 2.7 NNE 15 20 8 11 1007.4 1007.3 0.0
22/01:30am 14.5 10.8 9.5 72 2.6 NE 19 24 10 13 1007.9 1007.8 0.0
22/01:00am 12.7 10.0 8.8 77 2.0 NE 13 15 7 8 1008.5 1008.4 0.0
22/12:30am 12.5 9.4 9.0 79 1.8 NE 15 19 8 10 1009.0 1008.9 0.0
22/12:00am 11.8 9.6 7.7 76 2.0 NE 9 11 5 6 1009.2 1009.1 0.0
 
Date/Time
CST
Temp
°C
App
Temp
°C
Dew
Point
°C
Rel
Hum
%
Delta-T
°C
Wind Press
QNH
hPa
Press
MSL
hPa
Rain since
9am
mm
Dir  Spd
km/h
Gust
km/h
Spd
kts
Gust
kts
21/11:30pm 12.2 9.3 8.1 76 2.0 NE 13 17 7 9 1009.6 1009.5 0.0
21/11:00pm 11.8 8.9 8.3 79 1.7 NE 13 15 7 8 1009.9 1009.8 0.0
21/10:30pm 10.7 7.3 5.9 72 2.2 NE 13 13 7 7 1010.2 1010.1 0.0
21/10:00pm 9.8 6.2 5.0 72 2.2 NE 13 15 7 8 1010.7 1010.6 0.0
21/09:30pm 10.7 8.4 4.8 67 2.7 NNE 6 9 3 5 1011.1 1011.0 0.0
21/09:00pm 11.8 10.0 5.2 64 3.1 NNE 4 7 2 4 1011.3 1011.2 0.0
21/08:30pm 13.3 11.5 5.2 58 3.8 S 4 7 2 4 1011.2 1011.1 0.0
21/08:00pm 15.5 13.4 6.5 55 4.4 SSW 7 9 4 5 1011.2 1011.1 0.0
21/07:30pm 16.7 14.6 6.8 52 4.9 S 7 9 4 5 1010.9 1010.8 0.0
21/07:00pm 18.1 15.7 7.2 49 5.5 SSE 9 13 5 7 1010.3 1010.2 0.0
21/06:30pm 19.4 15.5 7.2 45 6.2 SSW 17 22 9 12 1010.2 1010.1 0.0
21/06:00pm 21.2 16.9 7.8 42 7.0 SSW 20 26 11 14 1009.7 1009.6 0.0
21/05:30pm 22.9 18.2 7.8 38 8.0 SSW 22 28 12 15 1009.3 1009.2 0.0
21/05:00pm 24.0 19.5 8.4 37 8.3 SW 22 28 12 15 1009.0 1008.9 0.0
21/04:30pm 24.9 20.6 8.0 34 9.0 SW 20 26 11 14 1008.7 1008.6 0.0
21/04:00pm 24.9 20.6 8.0 34 9.0 SSW 20 30 11 16 1008.4 1008.3 0.0
21/03:30pm 25.6 21.6 8.1 33 9.4 SW 19 32 10 17 1008.5 1008.4 0.0
21/03:00pm 26.6 22.8 7.6 30 10.2 SW 17 26 9 14 1008.4 1008.3 0.0
21/02:30pm 26.4 23.4 7.9 31 10.0 W 13 20 7 11 1008.8 1008.7 0.0
21/02:00pm 25.9 22.7 7.0 30 10.0 WSW 13 19 7 10 1009.2 1009.1 0.0
21/01:30pm 25.4 22.4 7.5 32 9.5 SSW 13 20 7 11 1009.6 1009.5 0.0
21/01:00pm 24.5 21.1 7.6 34 8.9 SW 15 20 8 11 1010.2 1010.1 0.0
21/12:30pm 24.4 21.4 7.5 34 8.9 SW 13 19 7 10 1010.6 1010.5 0.0
21/12:00pm 23.3 20.5 7.0 35 8.5 SSW 11 17 6 9 1010.8 1010.7 0.0
21/11:30am 21.6 20.0 8.1 42 7.1 NE 6 13 3 7 1011.2 1011.1 0.0
21/11:00am 20.3 19.2 9.8 51 5.6 SW 6 13 3 7 1011.6 1011.5 0.0
21/10:30am 19.4 18.4 10.9 58 4.6 ENE 7 13 4 7 1011.7 1011.6 0.0
21/10:00am 17.9 17.1 11.2 65 3.6 N 6 13 3 7 1012.1 1012.0 0.0
21/09:30am 16.0 14.4 10.3 69 3.0 NE 9 13 5 7 1012.4 1012.3 0.0
21/09:00am 15.5 14.1 10.9 74 2.5 ENE 9 17 5 9 1012.2 1012.1 0.0
21/08:30am 14.4 13.0 11.0 80 1.8 E 9 15 5 8 1012.5 1012.4 0.0
21/08:00am 13.7 12.4 11.2 85 1.3 S 9 13 5 7 1012.4 1012.3 0.0
21/07:30am 13.5 12.2 11.2 86 1.2 S 9 13 5 7 1012.3 1012.2 0.0
21/07:00am 13.1 11.7 10.8 86 1.2 S 9 13 5 7 1012.2 1012.1 0.0
21/06:30am 12.0 11.6 9.9 87 1.1 SSW 2 7 1 4 1011.7 1011.6 0.0
21/06:00am 10.3 9.1 8.2 87 1.0 SW 4 7 2 4 1011.7 1011.6 0.0
21/05:30am 9.0 6.6 7.1 88 0.9 WNW 9 11 5 6 1011.5 1011.4 0.0
21/05:00am 8.5 5.5 5.8 83 1.2 WNW 11 13 6 7 1011.2 1011.1 0.0
21/04:30am 7.6 4.5 3.6 76 1.7 WNW 9 11 5 6 1010.9 1010.8 0.0
21/04:00am 8.9 7.2 4.1 72 2.1 NNW 2 7 1 4 1010.5 1010.4 0.0
21/03:30am 9.0 6.2 3.4 68 2.4 NW 7 9 4 5 1010.3 1010.2 0.0
21/03:00am 9.6 7.3 2.7 62 3.0 NE 4 9 2 5 1010.1 1010.0 0.0
21/02:30am 12.5 9.2 4.7 59 3.6 NNW 11 11 6 6 1010.3 1010.2 0.0
21/02:00am 12.6 9.1 1.0 45 4.9 NW 9 11 5 6 1010.4 1010.3 0.0
21/01:30am 14.4 9.4 -3.9 28 7.1 WNW 13 17 7 9 1010.1 1010.0 0.0
21/01:00am 17.1 12.6 -6.7 19 8.9 NNW 9 15 5 8 1010.0 1009.9 0.0
21/12:30am 20.1 12.2 -8.2 14 10.7 W 26 44 14 24 1009.9 1009.8 0.0
21/12:00am 21.3 12.2 -9.2 12 11.4 N 32 41 17 22 1008.6 1008.5 0.0
 
Date/Time
CST
Temp
°C
App
Temp
°C
Dew
Point
°C
Rel
Hum
%
Delta-T
°C
Wind Press
QNH
hPa
Press
MSL
hPa
Rain since
9am
mm
Dir  Spd
km/h
Gust
km/h
Spd
kts
Gust
kts
20/11:30pm 20.6 11.9 -8.7 13 11.0 N 30 37 16 20 1008.7 1008.6 0.0
20/11:00pm 20.6 12.4 -7.8 14 10.8 N 28 37 15 20 1009.0 1008.9 0.0
20/10:30pm 20.3 12.5 -8.0 14 10.7 N 26 35 14 19 1009.3 1009.2 0.0
20/10:00pm 21.7 13.1 -7.9 13 11.4 N 30 37 16 20 1009.2 1009.1 0.0
20/09:30pm 22.2 13.2 -8.5 12 11.8 N 32 41 17 22 1009.2 1009.1 0.0
20/09:00pm 21.9 14.1 -7.7 13 11.5 NNE 26 33 14 18 1009.5 1009.4 0.0
20/08:30pm 20.9 14.8 -7.6 14 11.0 NNE 17 28 9 15 1009.9 1009.8 0.0
20/08:00pm 19.9 13.4 -7.5 15 10.4 NNE 19 20 10 11 1010.0 1009.9 0.0
20/07:30pm 16.5 11.0 -5.3 22 8.4 NNE 15 19 8 10 1010.0 1009.9 0.0
20/07:00pm 17.5 12.0 -5.7 20 8.9 NNE 15 17 8 9 1010.0 1009.9 0.0
20/06:30pm 20.5 14.6 -5.4 17 10.4 NNE 17 20 9 11 1009.9 1009.8 0.0
20/06:00pm 24.2 18.3 -5.9 13 12.4 NNE 17 20 9 11 1009.9 1009.8 0.0
20/05:30pm 26.0 19.4 -6.7 11 13.5 N 20 28 11 15 1010.0 1009.9 0.0
20/05:00pm 26.9 19.9 -7.2 10 14.0 NNW 22 32 12 17 1010.3 1010.2 0.0
20/04:30pm 27.3 19.9 -6.9 10 14.2 N 24 35 13 19 1010.3 1010.2 0.0
20/04:00pm 27.9 19.8 -6.5 10 14.5 N 28 39 15 21 1010.6 1010.5 0.0
20/03:30pm 27.6 19.0 -8.1 9 14.6 N 30 44 16 24 1010.7 1010.6 0.0
20/03:00pm 27.5 18.9 -8.2 9 14.5 N 30 44 16 24 1011.0 1010.9 0.0
20/02:30pm 27.8 19.0 -6.6 10 14.4 NNE 32 46 17 25 1011.3 1011.2 0.0
20/02:00pm 27.6 19.1 -6.7 10 14.3 N 30 43 16 23 1011.7 1011.6 0.0
20/01:30pm 27.7 19.6 -6.6 10 14.4 N 28 41 15 22 1012.4 1012.3 0.0
20/01:00pm 26.8 18.8 -6.1 11 13.8 N 28 37 15 20 1013.1 1013.0 0.0
20/12:30pm 26.5 18.8 -6.3 11 13.7 N 26 43 14 23 1013.6 1013.5 0.0
20/12:00pm 25.7 18.8 -5.8 12 13.1 NNW 22 32 12 17 1014.6 1014.6 0.0
20/11:30am 24.6 18.2 -4.6 14 12.3 N 20 33 11 18 1015.4 1015.4 0.0
20/11:00am 24.1 15.9 -4.1 15 12.0 NNW 30 39 16 21 1015.2 1015.2 0.0
20/10:30am 23.1 14.6 -3.3 17 11.3 N 32 44 17 24 1015.4 1015.4 0.0
20/10:00am 22.1 13.5 -2.6 19 10.6 N 33 48 18 26 1015.7 1015.7 0.0
20/09:30am 20.3 11.0 -2.1 22 9.5 N 37 50 20 27 1015.9 1015.9 0.0
20/09:00am 19.6 11.1 -1.5 24 9.0 N 33 44 18 24 1016.1 1016.1 0.0
20/08:30am 17.0 10.4 -0.2 31 7.4 N 24 35 13 19 1016.5 1016.5 0.0
20/08:00am 15.3 8.4 -0.1 35 6.5 N 26 37 14 20 1016.5 1016.5 0.0
20/07:30am 13.5 7.0 0.5 41 5.5 NNE 24 32 13 17 1016.7 1016.7 0.0
20/07:00am 11.7 5.3 0.8 47 4.6 NNE 24 32 13 17 1016.8 1016.8 0.0
20/06:30am 12.2 5.7 0.6 45 4.8 N 24 32 13 17 1016.8 1016.8 0.0
20/06:00am 12.3 5.9 0.7 45 4.9 N 24 32 13 17 1016.8 1016.8 0.0
20/05:30am 12.7 5.9 0.8 44 5.0 N 26 33 14 18 1016.7 1016.7 0.0
20/05:00am 12.4 5.9 0.5 44 5.0 N 24 32 13 17 1016.8 1016.8 0.0
20/04:30am 12.7 6.7 0.8 44 5.0 N 22 32 12 17 1016.9 1016.9 0.0
20/04:00am 13.1 6.7 0.8 43 5.2 N 24 32 13 17 1017.0 1017.0 0.0
20/03:30am 13.8 7.0 0.5 40 5.6 N 26 35 14 19 1017.2 1017.2 0.0
20/03:00am 13.8 8.1 0.5 40 5.6 N 20 30 11 16 1017.5 1017.5 0.0
20/02:30am 12.2 7.9 1.2 47 4.7 N 13 19 7 10 1018.1 1018.1 0.0
20/02:00am 10.5 7.9 1.1 52 3.9 ESE 4 9 2 5 1018.4 1018.4 0.0
20/01:30am 11.1 8.5 1.1 50 4.2 NNE 4 7 2 4 1018.7 1018.7 0.0
20/01:00am 11.6 7.3 1.0 48 4.4 NE 13 19 7 10 1018.8 1018.8 0.0
20/12:30am 10.0 5.4 1.4 55 3.6 NE 15 19 8 10 1019.5 1019.4 0.0
20/12:00am 10.3 5.9 0.3 50 4.1 NNE 13 19 7 10 1019.9 1019.8 0.0
 
Date/Time
CST
Temp
°C
App
Temp
°C
Dew
Point
°C
Rel
Hum
%
Delta-T
°C
Wind Press
QNH
hPa
Press
MSL
hPa
Rain since
9am
mm
Dir  Spd
km/h
Gust
km/h
Spd
kts
Gust
kts
19/11:30pm 8.1 5.1 1.7 64 2.6 N 7 9 4 5 1020.6 1020.5 0.0
19/11:00pm 7.2 5.4 3.3 76 1.7 NNE 2 6 1 3 1020.9 1020.8 0.0
19/10:30pm 5.9 3.1 3.1 82 1.2 N 7 9 4 5 1021.0 1020.9 0.0
19/10:00pm 6.8 4.3 3.8 81 1.3 NW 6 9 3 5 1021.4 1021.3 0.0
19/09:30pm 6.6 3.9 2.5 75 1.7 NNE 6 9 3 5 1021.9 1021.8 0.0
19/09:00pm 7.5 4.8 3.6 76 1.7 WSW 7 9 4 5 1021.8 1021.7 0.0
19/08:30pm 8.8 7.2 2.4 64 2.7 CALM 0 0 0 0 1021.7 1021.6 0.0
19/08:00pm 9.3 7.1 3.5 67 2.5 WNW 4 13 2 7 1021.7 1021.6 0.0
19/07:30pm 10.1 8.7 3.4 63 2.9 CALM 0 0 0 0 1021.5 1021.4 0.0

Other Formats:

Comma delimited format used in spreadsheet applications
http://www.bom.gov.au/fwo/IDS60801/IDS60801.95654.axf

JavaScript Object Notation format (JSON) in row-major order
http://www.bom.gov.au/fwo/IDS60801/IDS60801.95654.json